createdAt,value
2022-11-29T00:01:40.942Z,43.70
2022-11-29T00:04:11.452Z,43.90
2022-11-29T00:06:40.147Z,40.40
2022-11-29T00:09:11.784Z,48.10
2022-11-29T00:12:00.672Z,43.30
2022-11-29T00:14:29.429Z,44.60
2022-11-29T00:17:02.405Z,46.30
2022-11-29T00:19:32.576Z,46.50
2022-11-29T00:22:01.864Z,44.30
2022-11-29T00:24:32.524Z,44.50
2022-11-29T00:27:04.161Z,44.30
2022-11-29T00:29:34.539Z,53.60
2022-11-29T00:32:02.839Z,38.30
2022-11-29T00:34:31.380Z,42.00
2022-11-29T00:36:59.514Z,45.00
2022-11-29T00:39:27.674Z,43.90
2022-11-29T00:41:56.083Z,43.70
2022-11-29T00:44:24.187Z,46.90
2022-11-29T00:46:52.302Z,51.40
2022-11-29T00:49:20.582Z,48.70
2022-11-29T00:51:48.861Z,42.90
2022-11-29T00:54:17.388Z,45.20
2022-11-29T00:56:45.914Z,50.30
2022-11-29T00:59:14.239Z,44.70
2022-11-29T01:01:45.618Z,49.60
2022-11-29T01:04:14.141Z,49.70
2022-11-29T01:06:42.654Z,44.40
2022-11-29T01:09:10.888Z,50.40
2022-11-29T01:11:39.250Z,58.20
2022-11-29T01:14:07.313Z,54.90
2022-11-29T01:16:35.438Z,54.40
2022-11-29T01:19:04.130Z,49.50
2022-11-29T01:21:32.195Z,44.40
2022-11-29T01:24:01.536Z,48.70
2022-11-29T01:26:31.097Z,49.10
2022-11-29T01:28:59.745Z,46.10
2022-11-29T01:31:32.258Z,43.70
2022-11-29T01:34:02.606Z,47.20
2022-11-29T01:36:31.409Z,47.10
2022-11-29T01:39:05.055Z,42.40
2022-11-29T01:41:35.472Z,47.80
2022-11-29T01:44:03.777Z,49.20
2022-11-29T01:46:37.713Z,49.80
2022-11-29T01:49:13.938Z,48.20
2022-11-29T01:51:48.725Z,48.90
2022-11-29T01:54:17.773Z,50.50
2022-11-29T01:56:48.775Z,48.70
2022-11-29T01:59:21.005Z,52.50
2022-11-29T02:03:16.784Z,51.80
2022-11-29T02:05:49.551Z,48.50
2022-11-29T02:08:26.962Z,47.10
2022-11-29T02:11:13.669Z,43.50
2022-11-29T02:14:00.154Z,48.30
2022-11-29T02:16:31.389Z,54.70
2022-11-29T02:19:26.785Z,45.20
2022-11-29T02:22:11.078Z,55.40
2022-11-29T02:25:28.439Z,55.60
2022-11-29T02:28:20.738Z,49.80
2022-11-29T02:31:11.781Z,56.90
2022-11-29T02:33:58.048Z,49.90
2022-11-29T02:36:51.646Z,57.90
2022-11-29T02:39:46.006Z,52.70
2022-11-29T02:42:55.732Z,51.10
2022-11-29T02:45:24.821Z,62.60
2022-11-29T02:48:17.285Z,49.80
2022-11-29T02:50:55.615Z,45.30
2022-11-29T02:53:37.203Z,50.00
2022-11-29T02:56:15.654Z,52.30
2022-11-29T02:58:48.685Z,50.70
2022-11-29T03:01:37.606Z,62.00
2022-11-29T03:04:30.816Z,51.60
2022-11-29T03:07:17.874Z,49.60
2022-11-29T03:10:29.541Z,51.30
2022-11-29T03:13:00.136Z,57.10
2022-11-29T03:15:34.605Z,57.10
2022-11-29T03:18:24.937Z,50.60
2022-11-29T03:21:23.081Z,44.60
2022-11-29T03:23:55.287Z,49.90
2022-11-29T03:26:35.679Z,48.40
2022-11-29T03:29:50.700Z,44.40
2022-11-29T03:32:30.797Z,39.40
2022-11-29T03:35:15.064Z,48.50
2022-11-29T03:38:13.724Z,45.40
2022-11-29T03:49:49.326Z,48.80
2022-11-29T03:52:43.498Z,51.10
2022-11-29T03:55:33.328Z,48.80
2022-11-29T03:58:36.457Z,50.00
2022-11-29T04:01:52.441Z,47.50
2022-11-29T04:04:56.114Z,51.70
2022-11-29T04:07:44.566Z,42.20
2022-11-29T04:10:18.495Z,46.90
2022-11-29T04:12:57.646Z,50.90
2022-11-29T04:15:52.710Z,50.80
2022-11-29T04:18:36.440Z,48.90
2022-11-29T04:21:27.105Z,45.30
2022-11-29T04:24:02.295Z,46.90
2022-11-29T04:26:52.167Z,48.40
2022-11-29T04:29:38.262Z,47.30
2022-11-29T04:32:47.864Z,50.10
2022-11-29T04:35:39.320Z,40.10
2022-11-29T04:38:19.290Z,45.40
2022-11-29T04:41:05.466Z,42.70
2022-11-29T04:43:51.853Z,41.00
2022-11-29T04:46:46.432Z,39.90
2022-11-29T04:49:36.456Z,48.40
2022-11-29T04:52:06.493Z,47.50
2022-11-29T04:54:40.205Z,51.70
2022-11-29T04:57:35.794Z,50.40
2022-11-29T05:00:11.304Z,52.90
2022-11-29T05:02:51.150Z,56.60
2022-11-29T05:05:51.449Z,51.60
2022-11-29T05:08:45.714Z,55.50
2022-11-29T05:11:34.875Z,44.70
2022-11-29T05:14:09.001Z,51.70
2022-11-29T05:16:48.142Z,48.80
2022-11-29T05:19:25.479Z,50.50
2022-11-29T05:22:19.925Z,60.30
2022-11-29T05:25:25.626Z,50.60
2022-11-29T05:28:50.059Z,49.60
2022-11-29T05:31:33.428Z,51.50
2022-11-29T05:34:39.130Z,43.20
2022-11-29T05:37:19.179Z,37.90
2022-11-29T05:40:04.244Z,38.80
2022-11-29T05:42:58.818Z,39.60
2022-11-29T05:45:57.735Z,50.80
2022-11-29T05:48:46.017Z,51.40
2022-11-29T05:51:27.774Z,44.70
2022-11-29T05:54:25.015Z,51.50
2022-11-29T05:57:10.852Z,51.90
2022-11-29T05:59:40.452Z,50.30
2022-11-29T06:02:27.040Z,42.30
2022-11-29T06:05:06.825Z,47.20
2022-11-29T06:08:07.494Z,51.00
2022-11-29T06:10:40.198Z,48.90
2022-11-29T06:13:26.289Z,48.00
2022-11-29T06:16:14.326Z,45.70
2022-11-29T06:19:00.377Z,50.30
2022-11-29T06:21:40.299Z,51.80
2022-11-29T06:24:25.965Z,54.80
2022-11-29T06:27:29.685Z,44.60
2022-11-29T06:30:09.300Z,43.70
2022-11-29T06:32:50.572Z,48.30
2022-11-29T06:37:51.896Z,48.80
2022-11-29T06:40:20.260Z,43.90
2022-11-29T06:42:49.059Z,50.00
2022-11-29T06:45:17.559Z,43.20
2022-11-29T06:48:06.907Z,38.70
2022-11-29T06:51:08.671Z,40.90
2022-11-29T06:53:45.464Z,39.70
2022-11-29T06:56:40.718Z,47.10
2022-11-29T06:59:23.816Z,44.60
2022-11-29T07:02:00.378Z,53.30
2022-11-29T07:04:46.618Z,53.70
2022-11-29T07:07:19.487Z,52.10
2022-11-29T07:09:53.312Z,46.00
2022-11-29T07:12:22.184Z,50.40
2022-11-29T07:14:50.870Z,41.60
2022-11-29T07:17:36.991Z,46.20
2022-11-29T07:20:23.771Z,50.20
2022-11-29T07:23:02.324Z,47.50
2022-11-29T07:26:03.434Z,48.80
2022-11-29T07:29:07.002Z,49.60
2022-11-29T07:31:41.498Z,40.60
2022-11-29T07:34:27.981Z,54.50
2022-11-29T07:37:14.354Z,45.20
2022-11-29T07:39:52.182Z,46.00
2022-11-29T07:42:32.260Z,43.90
2022-11-29T07:45:15.369Z,41.70
2022-11-29T07:47:43.953Z,42.60
2022-11-29T07:50:13.921Z,40.70
2022-11-29T07:52:42.425Z,44.90
2022-11-29T07:55:19.452Z,50.20
2022-11-29T07:57:48.938Z,49.10
2022-11-29T08:00:18.423Z,42.50
2022-11-29T08:02:48.915Z,42.10
2022-11-29T08:05:17.867Z,43.90
2022-11-29T08:07:47.782Z,38.80
2022-11-29T08:10:17.151Z,42.40
2022-11-29T08:12:48.776Z,43.70
2022-11-29T08:15:21.725Z,39.70
2022-11-29T08:17:50.720Z,38.90
2022-11-29T08:20:19.449Z,40.00
2022-11-29T08:22:58.637Z,38.10
2022-11-29T08:25:28.370Z,41.40
2022-11-29T08:27:56.631Z,41.40
2022-11-29T08:30:25.048Z,49.20
2022-11-29T08:32:53.358Z,41.50
2022-11-29T08:35:22.897Z,44.70
2022-11-29T08:37:51.451Z,43.50
2022-11-29T08:40:19.791Z,42.20
2022-11-29T08:42:48.061Z,41.60
2022-11-29T08:45:16.658Z,36.60
2022-11-29T08:47:44.786Z,41.10
2022-11-29T08:50:16.273Z,38.10
2022-11-29T08:53:08.786Z,38.90
2022-11-29T08:55:43.155Z,40.50
2022-11-29T08:58:15.049Z,37.60
2022-11-29T09:00:45.689Z,41.80
2022-11-29T09:03:32.839Z,43.00
2022-11-29T09:06:12.972Z,44.10
2022-11-29T09:08:45.541Z,43.50
2022-11-29T09:11:19.961Z,39.90
2022-11-29T09:13:52.568Z,41.30
2022-11-29T09:16:25.328Z,42.70
2022-11-29T09:18:55.931Z,40.90
2022-11-29T09:21:26.078Z,44.70
2022-11-29T09:23:59.378Z,39.90
2022-11-29T09:26:31.228Z,41.20
2022-11-29T09:29:01.476Z,42.40
2022-11-29T09:31:31.639Z,43.80
2022-11-29T09:33:59.964Z,39.50
2022-11-29T09:36:30.368Z,47.60
2022-11-29T09:39:05.197Z,39.20
2022-11-29T09:42:11.660Z,39.60
2022-11-29T09:44:53.735Z,39.70
2022-11-29T09:47:37.631Z,36.50
2022-11-29T09:50:19.025Z,34.50
2022-11-29T09:52:59.547Z,46.00
2022-11-29T09:55:46.606Z,44.60
2022-11-29T09:58:23.407Z,41.60
2022-11-29T10:00:58.621Z,43.00
2022-11-29T10:03:32.354Z,44.80
2022-11-29T10:06:18.839Z,43.90
2022-11-29T10:09:06.864Z,42.50
2022-11-29T10:11:37.313Z,50.60
2022-11-29T10:14:16.622Z,47.40
2022-11-29T10:16:52.477Z,45.00
2022-11-29T10:19:48.417Z,46.60
2022-11-29T10:22:45.157Z,43.70
2022-11-29T10:25:25.391Z,44.30
2022-11-29T10:27:54.622Z,40.30
2022-11-29T10:30:22.770Z,41.40
2022-11-29T10:33:00.800Z,41.30
2022-11-29T10:35:29.670Z,43.20
2022-11-29T10:41:07.094Z,44.40
2022-11-29T10:43:37.516Z,39.70
2022-11-29T10:46:11.952Z,36.50
2022-11-29T10:48:40.759Z,36.10
2022-11-29T10:51:17.680Z,45.00
2022-11-29T10:53:46.723Z,45.20
2022-11-29T10:56:29.563Z,47.00
2022-11-29T10:59:05.067Z,44.60
2022-11-29T11:01:38.381Z,44.30
2022-11-29T11:04:14.263Z,39.50
2022-11-29T11:06:45.807Z,35.00
2022-11-29T11:09:22.235Z,34.90
2022-11-29T11:11:58.818Z,38.60
2022-11-29T11:14:37.611Z,41.60
2022-11-29T11:17:21.186Z,39.40
2022-11-29T11:20:04.735Z,37.30
2022-11-29T11:22:34.312Z,36.80
2022-11-29T11:25:25.614Z,43.10
2022-11-29T11:30:25.878Z,33.80
2022-11-29T11:33:06.828Z,35.50
2022-11-29T11:35:37.296Z,33.50
2022-11-29T11:38:05.472Z,37.50
2022-11-29T11:40:35.998Z,35.30
2022-11-29T11:43:04.336Z,42.10
2022-11-29T11:45:35.643Z,38.80
2022-11-29T11:50:53.847Z,44.00
2022-11-29T11:53:33.988Z,39.20
2022-11-29T11:56:06.623Z,34.50
2022-11-29T11:58:39.819Z,36.10
2022-11-29T12:01:30.805Z,33.50
2022-11-29T12:04:11.743Z,36.70
2022-11-29T12:06:57.449Z,41.90
2022-11-29T12:09:28.701Z,40.60
2022-11-29T12:12:02.354Z,39.70
2022-11-29T12:14:45.111Z,37.60
2022-11-29T12:17:40.783Z,38.80
2022-11-29T12:20:26.910Z,45.30
2022-11-29T12:23:13.842Z,42.90
2022-11-29T12:26:58.023Z,39.20
2022-11-29T12:29:31.613Z,47.90
2022-11-29T12:32:05.612Z,44.40
2022-11-29T12:34:53.789Z,44.00
2022-11-29T12:37:32.583Z,42.40
2022-11-29T12:40:13.632Z,38.30
2022-11-29T12:43:13.728Z,33.90
2022-11-29T12:46:01.478Z,36.40
2022-11-29T12:48:44.555Z,37.10
2022-11-29T12:51:41.193Z,37.90
2022-11-29T12:54:27.345Z,35.10
2022-11-29T12:57:15.321Z,41.10
2022-11-29T12:59:54.852Z,41.20
2022-11-29T13:02:23.779Z,37.30
2022-11-29T13:04:59.908Z,47.10
2022-11-29T13:07:53.024Z,37.70
2022-11-29T13:10:27.405Z,33.10
2022-11-29T13:12:57.366Z,36.50
2022-11-29T13:15:43.564Z,36.30
2022-11-29T13:18:23.211Z,38.60
2022-11-29T13:20:55.915Z,39.60
2022-11-29T13:24:07.185Z,42.10
2022-11-29T13:26:30.420Z,41.90
2022-11-29T13:28:59.505Z,35.10
2022-11-29T13:31:28.228Z,44.90
2022-11-29T13:34:15.340Z,37.20
2022-11-29T13:36:57.949Z,46.60
2022-11-29T13:39:38.403Z,45.40
2022-11-29T13:42:19.269Z,42.20
2022-11-29T13:44:55.916Z,51.00
2022-11-29T13:47:24.376Z,45.70
2022-11-29T13:50:07.437Z,46.40
2022-11-29T13:52:38.664Z,42.60
2022-11-29T13:55:12.852Z,48.20
2022-11-29T13:58:15.006Z,42.30
2022-11-29T14:00:39.921Z,92.40
2022-11-29T14:03:23.366Z,52.50
2022-11-29T14:06:12.076Z,47.30
2022-11-29T14:09:17.823Z,41.00
2022-11-29T14:11:51.839Z,42.60
2022-11-29T14:14:26.020Z,42.80
2022-11-29T14:17:03.618Z,40.90
2022-11-29T14:19:34.555Z,39.10
2022-11-29T14:22:02.803Z,44.90
2022-11-29T14:24:37.366Z,49.50
2022-11-29T14:27:10.006Z,71.80
2022-11-29T14:29:50.358Z,52.50
2022-11-29T14:32:45.788Z,49.50
2022-11-29T14:35:35.541Z,42.10
2022-11-29T14:38:16.143Z,49.10
2022-11-29T14:40:57.303Z,45.50
2022-11-29T14:43:41.609Z,35.70
2022-11-29T14:46:16.037Z,35.00
2022-11-29T14:48:59.960Z,30.80
2022-11-29T14:51:32.295Z,32.10
2022-11-29T14:54:22.977Z,31.20
2022-11-29T14:56:59.828Z,32.40
2022-11-29T15:03:11.144Z,39.50
2022-11-29T15:06:24.709Z,35.40
2022-11-29T15:09:06.390Z,34.10
2022-11-29T15:11:50.594Z,36.40
2022-11-29T15:14:44.072Z,35.60
2022-11-29T15:17:27.714Z,35.10
2022-11-29T15:20:42.504Z,31.70
2022-11-29T15:23:19.430Z,38.30
2022-11-29T15:25:48.828Z,34.90
2022-11-29T15:28:30.538Z,36.90
2022-11-29T15:31:08.015Z,46.90
2022-11-29T15:33:40.691Z,41.30
2022-11-29T15:36:22.051Z,50.20
2022-11-29T15:38:51.611Z,50.00
2022-11-29T15:41:26.702Z,38.90
2022-11-29T15:44:00.201Z,45.30
2022-11-29T15:46:31.404Z,40.00
2022-11-29T15:49:23.819Z,36.80
2022-11-29T15:52:11.111Z,41.00
2022-11-29T15:54:44.016Z,38.60
2022-11-29T15:57:19.918Z,37.50
2022-11-29T15:59:58.735Z,42.00
2022-11-29T16:02:27.877Z,38.90
2022-11-29T16:04:59.899Z,38.80
2022-11-29T16:07:32.814Z,36.50
2022-11-29T16:10:13.012Z,36.20
2022-11-29T16:13:22.595Z,37.50
2022-11-29T16:16:09.465Z,34.50
2022-11-29T16:18:41.249Z,38.30
2022-11-29T16:21:29.477Z,38.50
2022-11-29T16:23:58.658Z,42.10
2022-11-29T16:26:34.553Z,44.70
2022-11-29T16:29:03.633Z,45.30
2022-11-29T16:31:37.919Z,39.90
2022-11-29T16:34:09.366Z,40.20
2022-11-29T16:36:37.818Z,35.70
2022-11-29T16:39:16.642Z,48.00
2022-11-29T16:42:25.907Z,42.70
2022-11-29T16:45:04.065Z,53.20
2022-11-29T16:47:47.379Z,50.70
2022-11-29T16:50:22.196Z,49.40
2022-11-29T16:52:56.059Z,41.50
2022-11-29T16:55:25.102Z,44.00
2022-11-29T16:57:54.722Z,46.00
2022-11-29T17:00:33.780Z,48.60
2022-11-29T17:03:12.487Z,47.30
2022-11-29T17:05:44.718Z,47.30
2022-11-29T17:08:13.198Z,47.30
2022-11-29T17:10:41.633Z,42.90
2022-11-29T17:13:11.319Z,42.50
2022-11-29T17:15:39.710Z,47.10
2022-11-29T17:18:08.274Z,41.90
2022-11-29T17:20:36.418Z,45.70
2022-11-29T17:23:04.748Z,44.10
2022-11-29T17:25:33.812Z,46.20
2022-11-29T17:28:02.571Z,44.70
2022-11-29T17:30:31.825Z,40.30
2022-11-29T17:33:00.309Z,35.60
2022-11-29T17:35:31.518Z,37.10
2022-11-29T17:37:59.863Z,39.80
2022-11-29T17:40:28.282Z,41.00
2022-11-29T17:42:56.580Z,43.20
2022-11-29T17:45:25.063Z,42.10
2022-11-29T17:47:55.475Z,48.30
2022-11-29T17:50:23.494Z,40.40
2022-11-29T17:52:51.780Z,36.00
2022-11-29T17:55:20.916Z,39.30
2022-11-29T17:57:49.471Z,42.90
2022-11-29T18:00:18.670Z,42.90
2022-11-29T18:02:46.928Z,43.30
2022-11-29T18:05:15.233Z,40.10
2022-11-29T18:07:58.192Z,47.80
2022-11-29T18:10:28.209Z,47.30
2022-11-29T18:12:56.564Z,52.70
2022-11-29T18:15:24.855Z,50.30
2022-11-29T18:17:53.137Z,42.90
2022-11-29T18:20:21.317Z,41.10
2022-11-29T18:22:49.712Z,44.90
2022-11-29T18:25:38.070Z,42.60
2022-11-29T18:28:08.033Z,44.00
2022-11-29T18:30:36.360Z,43.10
2022-11-29T18:33:04.596Z,42.10
2022-11-29T18:35:33.222Z,45.80
2022-11-29T18:38:17.019Z,43.50
2022-11-29T18:40:46.019Z,39.60
2022-11-29T18:43:16.207Z,45.80
2022-11-29T18:45:44.516Z,41.10
2022-11-29T18:48:13.068Z,49.70
2022-11-29T18:50:41.567Z,41.90
2022-11-29T18:53:09.638Z,38.70
2022-11-29T18:55:38.171Z,43.30
2022-11-29T18:58:08.015Z,39.90
2022-11-29T19:00:36.129Z,45.40
2022-11-29T19:03:04.410Z,45.90
2022-11-29T19:05:32.594Z,52.70
2022-11-29T19:08:00.716Z,51.10
2022-11-29T19:10:29.138Z,49.00
2022-11-29T19:12:57.313Z,50.40
2022-11-29T19:15:25.484Z,46.00
2022-11-29T19:17:54.283Z,48.20
2022-11-29T19:20:22.330Z,47.50
2022-11-29T19:22:50.467Z,51.40
2022-11-29T19:25:18.741Z,54.40
2022-11-29T19:27:47.374Z,54.80
2022-11-29T19:30:17.492Z,55.90
2022-11-29T19:32:45.910Z,59.50
2022-11-29T19:35:14.181Z,56.90
2022-11-29T19:37:42.291Z,54.80
2022-11-29T19:40:10.981Z,59.20
2022-11-29T19:42:39.191Z,52.80
2022-11-29T19:45:17.173Z,47.50
2022-11-29T19:47:46.586Z,53.60
2022-11-29T19:50:14.657Z,56.90
2022-11-29T19:52:42.736Z,54.10
2022-11-29T19:55:11.085Z,56.90
2022-11-29T19:57:40.424Z,55.30
2022-11-29T20:00:09.212Z,58.20
2022-11-29T20:02:40.242Z,50.80
2022-11-29T20:05:09.085Z,49.50
2022-11-29T20:07:37.249Z,49.30
2022-11-29T20:10:08.158Z,47.80
2022-11-29T20:12:36.267Z,52.10
2022-11-29T20:15:04.933Z,58.80
2022-11-29T20:17:33.583Z,59.30
2022-11-29T20:20:01.681Z,64.70
2022-11-29T20:22:29.825Z,63.50
2022-11-29T20:24:58.154Z,59.30
2022-11-29T20:27:26.229Z,57.10
2022-11-29T20:29:54.701Z,54.90
2022-11-29T20:32:23.355Z,57.60
2022-11-29T20:34:51.704Z,59.80
2022-11-29T20:37:37.779Z,59.30
2022-11-29T20:40:16.863Z,64.70
2022-11-29T20:42:58.746Z,65.50
2022-11-29T20:45:27.403Z,65.30
2022-11-29T20:48:13.170Z,60.10
2022-11-29T20:50:44.858Z,60.70
2022-11-29T20:53:31.811Z,59.90
2022-11-29T20:56:00.524Z,61.80
2022-11-29T20:58:29.016Z,50.60
2022-11-29T21:00:57.754Z,63.90
2022-11-29T21:03:28.174Z,56.80
2022-11-29T21:05:57.756Z,66.70
2022-11-29T21:08:26.876Z,60.10
2022-11-29T21:11:07.839Z,65.50
2022-11-29T21:13:36.533Z,62.30
2022-11-29T21:16:07.449Z,60.00
2022-11-29T21:18:35.935Z,58.90
2022-11-29T21:21:24.985Z,58.00
2022-11-29T21:24:00.264Z,58.30
2022-11-29T21:26:42.480Z,52.60
2022-11-29T21:29:16.848Z,53.30
2022-11-29T21:31:47.689Z,49.20
2022-11-29T21:34:15.995Z,52.80
2022-11-29T21:36:45.055Z,55.80
2022-11-29T21:39:16.475Z,50.10
2022-11-29T21:41:45.300Z,58.70
2022-11-29T21:44:13.425Z,57.90
2022-11-29T21:46:41.786Z,60.40
2022-11-29T21:49:12.950Z,51.00
2022-11-29T21:51:41.161Z,45.70
2022-11-29T21:54:09.399Z,51.30
2022-11-29T21:56:37.642Z,45.50
2022-11-29T21:59:06.487Z,48.10
2022-11-29T22:01:35.327Z,60.80
2022-11-29T22:04:05.406Z,56.80
2022-11-29T22:06:33.531Z,55.90
2022-11-29T22:09:01.891Z,59.60
2022-11-29T22:11:31.017Z,58.60
2022-11-29T22:14:13.914Z,64.60
2022-11-29T22:16:43.427Z,58.50
2022-11-29T22:19:12.835Z,61.90
2022-11-29T22:21:42.773Z,57.50
2022-11-29T22:24:12.683Z,63.10
2022-11-29T22:26:42.719Z,57.80
2022-11-29T22:29:14.269Z,53.20
2022-11-29T22:31:43.920Z,56.20
2022-11-29T22:34:12.547Z,55.90
2022-11-29T22:36:41.507Z,55.30
2022-11-29T22:39:12.756Z,51.10
2022-11-29T22:41:41.772Z,53.30
2022-11-29T22:44:10.232Z,46.00
2022-11-29T22:46:41.214Z,45.70
2022-11-29T22:49:09.668Z,46.90
2022-11-29T22:51:38.833Z,49.00
2022-11-29T22:54:11.773Z,46.60
2022-11-29T22:56:44.853Z,45.40
2022-11-29T22:59:13.499Z,51.20
2022-11-29T23:01:42.535Z,51.50
2022-11-29T23:04:12.715Z,56.60
2022-11-29T23:06:43.350Z,64.50
2022-11-29T23:09:17.503Z,56.10
2022-11-29T23:11:46.590Z,64.70
2022-11-29T23:14:14.870Z,60.50
2022-11-29T23:16:43.212Z,55.90
2022-11-29T23:19:12.069Z,56.90
2022-11-29T23:21:41.208Z,46.70
2022-11-29T23:24:09.647Z,51.10
2022-11-29T23:26:40.492Z,60.60
2022-11-29T23:29:11.940Z,53.30
2022-11-29T23:31:40.707Z,55.20
2022-11-29T23:34:09.147Z,56.60
2022-11-29T23:36:37.447Z,51.80
2022-11-29T23:39:06.812Z,57.80
2022-11-29T23:41:36.622Z,59.50
2022-11-29T23:44:06.604Z,52.20
2022-11-29T23:46:35.448Z,50.00
2022-11-29T23:49:03.903Z,53.50
2022-11-29T23:51:33.798Z,61.50
2022-11-29T23:54:01.982Z,56.90
2022-11-29T23:56:35.475Z,49.80
2022-11-29T23:59:03.901Z,56.70
